sensor_id;sensor_type;location;lat;lon;timestamp;pressure;altitude;pressure_sealevel;temperature;humidity
37792;BME280;29527;55.766;37.570;2023-08-08T00:01:49;99031.16;;;23.92;49.87
37792;BME280;29527;55.766;37.570;2023-08-08T00:04:14;99022.13;;;23.91;49.54
37792;BME280;29527;55.766;37.570;2023-08-08T00:06:40;99025.53;;;23.87;49.68
37792;BME280;29527;55.766;37.570;2023-08-08T00:09:05;99031.09;;;23.80;49.98
37792;BME280;29527;55.766;37.570;2023-08-08T00:11:32;98993.31;;;23.58;49.92
37792;BME280;29527;55.766;37.570;2023-08-08T00:13:57;99007.44;;;23.74;50.17
37792;BME280;29527;55.766;37.570;2023-08-08T00:16:23;99008.25;;;23.74;50.22
37792;BME280;29527;55.766;37.570;2023-08-08T00:18:50;99018.34;;;23.74;50.39
37792;BME280;29527;55.766;37.570;2023-08-08T00:21:19;99023.16;;;23.78;50.21
37792;BME280;29527;55.766;37.570;2023-08-08T00:23:45;99017.91;;;23.77;50.32
37792;BME280;29527;55.766;37.570;2023-08-08T00:26:11;99014.94;;;23.78;50.11
37792;BME280;29527;55.766;37.570;2023-08-08T00:28:37;99007.56;;;23.79;50.19
37792;BME280;29527;55.766;37.570;2023-08-08T00:31:02;99009.31;;;23.73;50.54
37792;BME280;29527;55.766;37.570;2023-08-08T00:33:28;99027.16;;;23.76;50.54
37792;BME280;29527;55.766;37.570;2023-08-08T00:35:53;99005.91;;;23.78;50.32
37792;BME280;29527;55.766;37.570;2023-08-08T00:38:19;98995.91;;;23.72;50.49
37792;BME280;29527;55.766;37.570;2023-08-08T00:40:45;98993.72;;;23.62;51.05
37792;BME280;29527;55.766;37.570;2023-08-08T00:43:11;99001.13;;;23.73;50.81
37792;BME280;29527;55.766;37.570;2023-08-08T00:45:37;98981.19;;;23.54;51.06
37792;BME280;29527;55.766;37.570;2023-08-08T00:48:03;98992.13;;;23.54;50.84
37792;BME280;29527;55.766;37.570;2023-08-08T00:50:29;98978.00;;;23.57;51.11
37792;BME280;29527;55.766;37.570;2023-08-08T00:52:55;98982.56;;;23.63;50.66
37792;BME280;29527;55.766;37.570;2023-08-08T00:55:22;98982.25;;;23.53;50.85
37792;BME280;29527;55.766;37.570;2023-08-08T00:57:48;98988.94;;;23.57;50.88
37792;BME280;29527;55.766;37.570;2023-08-08T01:00:13;98984.66;;;23.61;50.59
37792;BME280;29527;55.766;37.570;2023-08-08T01:02:39;98983.53;;;23.50;50.94
37792;BME280;29527;55.766;37.570;2023-08-08T01:05:06;98981.72;;;23.44;51.37
37792;BME280;29527;55.766;37.570;2023-08-08T01:07:41;98971.47;;;23.58;50.60
37792;BME280;29527;55.766;37.570;2023-08-08T01:10:10;98983.38;;;23.64;50.59
37792;BME280;29527;55.766;37.570;2023-08-08T01:12:41;98982.41;;;23.58;50.95
37792;BME280;29527;55.766;37.570;2023-08-08T01:15:08;98968.38;;;23.55;50.75
37792;BME280;29527;55.766;37.570;2023-08-08T01:17:35;98967.72;;;23.41;51.45
37792;BME280;29527;55.766;37.570;2023-08-08T01:20:06;98958.97;;;23.50;51.71
37792;BME280;29527;55.766;37.570;2023-08-08T01:25:22;98933.72;;;23.18;51.89
37792;BME280;29527;55.766;37.570;2023-08-08T01:27:48;98945.59;;;23.23;52.37
37792;BME280;29527;55.766;37.570;2023-08-08T01:30:14;98959.50;;;23.22;52.49
37792;BME280;29527;55.766;37.570;2023-08-08T01:32:40;98974.81;;;23.23;52.19
37792;BME280;29527;55.766;37.570;2023-08-08T01:35:06;98916.44;;;23.05;52.14
37792;BME280;29527;55.766;37.570;2023-08-08T01:37:36;98951.03;;;23.30;52.05
37792;BME280;29527;55.766;37.570;2023-08-08T01:40:05;98967.44;;;23.23;52.68
37792;BME280;29527;55.766;37.570;2023-08-08T01:42:31;98958.91;;;23.20;52.67
37792;BME280;29527;55.766;37.570;2023-08-08T01:44:58;98962.41;;;23.27;51.92
37792;BME280;29527;55.766;37.570;2023-08-08T01:47:24;98950.72;;;23.20;52.30
37792;BME280;29527;55.766;37.570;2023-08-08T01:49:50;98940.25;;;23.17;52.22
37792;BME280;29527;55.766;37.570;2023-08-08T01:52:15;98959.50;;;23.22;51.70
37792;BME280;29527;55.766;37.570;2023-08-08T01:54:41;98958.00;;;23.26;51.52
37792;BME280;29527;55.766;37.570;2023-08-08T01:57:07;98960.75;;;23.26;51.57
37792;BME280;29527;55.766;37.570;2023-08-08T01:59:33;98932.16;;;23.29;51.36
37792;BME280;29527;55.766;37.570;2023-08-08T02:01:58;98947.09;;;23.26;51.71
37792;BME280;29527;55.766;37.570;2023-08-08T02:04:24;98944.63;;;23.36;51.15
37792;BME280;29527;55.766;37.570;2023-08-08T02:06:49;98939.31;;;23.23;51.10
37792;BME280;29527;55.766;37.570;2023-08-08T02:09:15;98953.16;;;23.28;50.90
37792;BME280;29527;55.766;37.570;2023-08-08T02:11:41;98966.19;;;23.26;51.42
37792;BME280;29527;55.766;37.570;2023-08-08T02:14:07;98936.13;;;23.07;51.54
37792;BME280;29527;55.766;37.570;2023-08-08T02:16:32;98961.38;;;23.21;51.75
37792;BME280;29527;55.766;37.570;2023-08-08T02:18:58;98963.31;;;23.21;51.76
37792;BME280;29527;55.766;37.570;2023-08-08T02:21:24;98968.16;;;23.19;51.96
37792;BME280;29527;55.766;37.570;2023-08-08T02:23:49;98966.19;;;23.26;51.22
37792;BME280;29527;55.766;37.570;2023-08-08T02:26:15;98955.09;;;23.21;51.58
37792;BME280;29527;55.766;37.570;2023-08-08T02:28:40;98966.63;;;23.23;51.35
37792;BME280;29527;55.766;37.570;2023-08-08T02:31:06;98961.63;;;23.20;52.09
37792;BME280;29527;55.766;37.570;2023-08-08T02:33:31;98954.97;;;23.16;52.76
37792;BME280;29527;55.766;37.570;2023-08-08T02:35:57;98960.84;;;23.13;52.78
37792;BME280;29527;55.766;37.570;2023-08-08T02:38:23;98961.31;;;23.09;52.85
37792;BME280;29527;55.766;37.570;2023-08-08T02:40:48;98967.91;;;23.02;52.92
37792;BME280;29527;55.766;37.570;2023-08-08T02:43:14;98962.28;;;22.97;52.49
37792;BME280;29527;55.766;37.570;2023-08-08T02:45:39;98961.94;;;22.93;52.87
37792;BME280;29527;55.766;37.570;2023-08-08T02:48:05;98958.59;;;22.91;52.29
37792;BME280;29527;55.766;37.570;2023-08-08T02:50:31;98951.91;;;22.87;52.55
37792;BME280;29527;55.766;37.570;2023-08-08T02:52:56;98955.69;;;22.86;52.66
37792;BME280;29527;55.766;37.570;2023-08-08T02:55:22;98947.50;;;22.86;52.85
37792;BME280;29527;55.766;37.570;2023-08-08T02:57:47;98948.09;;;22.88;52.56
37792;BME280;29527;55.766;37.570;2023-08-08T03:00:13;98965.88;;;22.97;52.05
37792;BME280;29527;55.766;37.570;2023-08-08T03:02:38;98963.97;;;22.98;52.17
37792;BME280;29527;55.766;37.570;2023-08-08T03:05:04;98952.97;;;23.04;51.46
37792;BME280;29527;55.766;37.570;2023-08-08T03:07:30;98966.69;;;23.16;51.24
37792;BME280;29527;55.766;37.570;2023-08-08T03:09:55;98968.50;;;23.22;50.78
37792;BME280;29527;55.766;37.570;2023-08-08T03:12:21;98973.72;;;23.31;50.20
37792;BME280;29527;55.766;37.570;2023-08-08T03:14:46;98994.56;;;23.25;50.85
37792;BME280;29527;55.766;37.570;2023-08-08T03:17:12;98975.28;;;23.39;50.40
37792;BME280;29527;55.766;37.570;2023-08-08T03:19:37;98965.22;;;23.39;50.31
37792;BME280;29527;55.766;37.570;2023-08-08T03:22:03;98978.47;;;23.54;50.11
37792;BME280;29527;55.766;37.570;2023-08-08T03:24:29;98985.91;;;23.65;49.63
37792;BME280;29527;55.766;37.570;2023-08-08T03:26:54;98970.84;;;23.75;49.26
37792;BME280;29527;55.766;37.570;2023-08-08T03:29:20;98986.53;;;23.79;48.92
37792;BME280;29527;55.766;37.570;2023-08-08T03:31:46;98971.72;;;23.87;48.88
37792;BME280;29527;55.766;37.570;2023-08-08T03:34:11;98976.47;;;23.92;49.16
37792;BME280;29527;55.766;37.570;2023-08-08T03:36:37;98980.72;;;24.06;48.54
37792;BME280;29527;55.766;37.570;2023-08-08T03:39:02;98976.34;;;24.17;48.11
37792;BME280;29527;55.766;37.570;2023-08-08T03:41:29;98974.72;;;24.28;47.92
37792;BME280;29527;55.766;37.570;2023-08-08T03:43:55;98964.25;;;24.37;47.87
37792;BME280;29527;55.766;37.570;2023-08-08T03:46:21;98978.03;;;24.30;47.58
37792;BME280;29527;55.766;37.570;2023-08-08T03:48:47;98965.66;;;24.28;47.69
37792;BME280;29527;55.766;37.570;2023-08-08T03:51:12;98970.88;;;24.17;47.75
37792;BME280;29527;55.766;37.570;2023-08-08T03:53:38;98976.91;;;24.07;48.51
37792;BME280;29527;55.766;37.570;2023-08-08T03:56:03;98986.41;;;24.05;48.39
37792;BME280;29527;55.766;37.570;2023-08-08T03:58:29;98978.75;;;23.95;48.65
37792;BME280;29527;55.766;37.570;2023-08-08T04:00:54;98985.81;;;24.03;48.74
37792;BME280;29527;55.766;37.570;2023-08-08T04:03:20;98987.59;;;24.09;48.45
37792;BME280;29527;55.766;37.570;2023-08-08T04:05:46;99004.59;;;24.11;48.38
37792;BME280;29527;55.766;37.570;2023-08-08T04:08:16;98995.22;;;24.07;48.57
37792;BME280;29527;55.766;37.570;2023-08-08T04:10:43;99011.28;;;24.03;48.82
37792;BME280;29527;55.766;37.570;2023-08-08T04:13:12;99006.03;;;24.02;49.02
37792;BME280;29527;55.766;37.570;2023-08-08T04:15:37;98995.09;;;24.02;48.67
37792;BME280;29527;55.766;37.570;2023-08-08T04:18:03;99002.75;;;23.93;49.25
37792;BME280;29527;55.766;37.570;2023-08-08T04:20:32;99002.94;;;23.79;50.42
37792;BME280;29527;55.766;37.570;2023-08-08T04:22:58;98994.97;;;23.78;50.46
37792;BME280;29527;55.766;37.570;2023-08-08T04:25:23;98993.38;;;23.70;50.90
37792;BME280;29527;55.766;37.570;2023-08-08T04:27:49;98986.78;;;23.59;51.00
37792;BME280;29527;55.766;37.570;2023-08-08T04:30:14;98991.38;;;23.65;51.38
37792;BME280;29527;55.766;37.570;2023-08-08T04:32:40;99000.16;;;23.68;50.99
37792;BME280;29527;55.766;37.570;2023-08-08T04:35:06;99004.38;;;23.51;51.63
37792;BME280;29527;55.766;37.570;2023-08-08T04:37:31;98974.53;;;23.31;51.85
37792;BME280;29527;55.766;37.570;2023-08-08T04:39:57;99002.91;;;23.49;52.19
37792;BME280;29527;55.766;37.570;2023-08-08T04:42:22;99017.38;;;23.49;52.25
37792;BME280;29527;55.766;37.570;2023-08-08T04:44:48;99012.16;;;23.48;52.10
37792;BME280;29527;55.766;37.570;2023-08-08T04:47:13;98999.44;;;23.42;52.71
37792;BME280;29527;55.766;37.570;2023-08-08T04:49:39;99001.19;;;23.36;52.41
37792;BME280;29527;55.766;37.570;2023-08-08T04:52:05;98993.91;;;23.30;53.20
37792;BME280;29527;55.766;37.570;2023-08-08T04:54:30;99004.91;;;23.42;52.63
37792;BME280;29527;55.766;37.570;2023-08-08T04:56:56;98994.03;;;23.35;52.95
37792;BME280;29527;55.766;37.570;2023-08-08T04:59:40;99008.91;;;23.58;52.07
37792;BME280;29527;55.766;37.570;2023-08-08T05:02:06;99002.91;;;23.30;53.52
37792;BME280;29527;55.766;37.570;2023-08-08T05:04:31;99001.84;;;23.31;53.82
37792;BME280;29527;55.766;37.570;2023-08-08T05:06:57;99009.66;;;23.46;53.77
37792;BME280;29527;55.766;37.570;2023-08-08T05:09:23;99012.75;;;23.69;52.80
37792;BME280;29527;55.766;37.570;2023-08-08T05:11:54;99027.72;;;23.97;52.15
37792;BME280;29527;55.766;37.570;2023-08-08T05:14:20;99019.91;;;24.00;51.54
37792;BME280;29527;55.766;37.570;2023-08-08T05:16:45;99027.00;;;24.20;51.21
37792;BME280;29527;55.766;37.570;2023-08-08T05:19:12;99012.28;;;24.33;50.34
37792;BME280;29527;55.766;37.570;2023-08-08T05:21:37;99050.91;;;24.67;50.04
37792;BME280;29527;55.766;37.570;2023-08-08T05:24:03;99023.66;;;24.72;49.44
37792;BME280;29527;55.766;37.570;2023-08-08T05:26:29;99011.25;;;24.70;49.46
37792;BME280;29527;55.766;37.570;2023-08-08T05:28:54;99005.56;;;24.59;49.86
37792;BME280;29527;55.766;37.570;2023-08-08T05:31:20;99016.13;;;24.56;50.08
37792;BME280;29527;55.766;37.570;2023-08-08T05:33:47;99008.16;;;24.54;50.70
37792;BME280;29527;55.766;37.570;2023-08-08T05:36:13;99016.72;;;24.58;50.25
37792;BME280;29527;55.766;37.570;2023-08-08T05:38:39;99018.78;;;24.74;49.27
37792;BME280;29527;55.766;37.570;2023-08-08T05:41:04;99021.91;;;24.90;49.04
37792;BME280;29527;55.766;37.570;2023-08-08T05:43:30;99021.66;;;25.03;48.71
37792;BME280;29527;55.766;37.570;2023-08-08T05:45:55;99026.50;;;25.37;47.84
37792;BME280;29527;55.766;37.570;2023-08-08T05:48:21;99000.25;;;26.57;45.03
37792;BME280;29527;55.766;37.570;2023-08-08T05:50:46;99016.53;;;28.32;41.08
37792;BME280;29527;55.766;37.570;2023-08-08T05:53:12;99010.25;;;29.60;38.09
37792;BME280;29527;55.766;37.570;2023-08-08T05:55:37;99008.63;;;32.46;33.99
37792;BME280;29527;55.766;37.570;2023-08-08T05:58:05;98997.75;;;34.73;29.81
37792;BME280;29527;55.766;37.570;2023-08-08T06:00:31;99011.78;;;34.96;29.29
37792;BME280;29527;55.766;37.570;2023-08-08T06:02:57;99014.22;;;35.30;28.83
37792;BME280;29527;55.766;37.570;2023-08-08T06:05:22;99008.97;;;35.71;28.16
37792;BME280;29527;55.766;37.570;2023-08-08T06:07:49;99017.50;;;35.74;27.55
37792;BME280;29527;55.766;37.570;2023-08-08T06:10:15;99015.84;;;35.03;28.83
37792;BME280;29527;55.766;37.570;2023-08-08T06:12:40;99023.81;;;34.25;29.77
37792;BME280;29527;55.766;37.570;2023-08-08T06:15:07;99025.72;;;33.18;31.36
37792;BME280;29527;55.766;37.570;2023-08-08T06:17:33;99014.75;;;32.03;33.07
37792;BME280;29527;55.766;37.570;2023-08-08T06:19:59;99010.94;;;31.07;34.55
37792;BME280;29527;55.766;37.570;2023-08-08T06:22:25;99026.44;;;30.31;36.11
37792;BME280;29527;55.766;37.570;2023-08-08T06:24:51;99014.66;;;29.61;37.47
37792;BME280;29527;55.766;37.570;2023-08-08T06:27:17;99031.47;;;29.06;38.23
37792;BME280;29527;55.766;37.570;2023-08-08T06:29:43;99031.13;;;28.65;39.17
37792;BME280;29527;55.766;37.570;2023-08-08T06:32:09;99027.56;;;28.32;39.91
37792;BME280;29527;55.766;37.570;2023-08-08T06:34:34;99023.34;;;28.24;40.19
37792;BME280;29527;55.766;37.570;2023-08-08T06:37:00;99033.63;;;28.34;39.90
37792;BME280;29527;55.766;37.570;2023-08-08T06:39:25;99033.06;;;28.32;40.19
37792;BME280;29527;55.766;37.570;2023-08-08T06:41:51;99028.50;;;28.15;40.42
37792;BME280;29527;55.766;37.570;2023-08-08T06:44:17;98992.00;;;27.98;40.41
37792;BME280;29527;55.766;37.570;2023-08-08T06:46:42;99023.38;;;28.89;39.27
37792;BME280;29527;55.766;37.570;2023-08-08T06:49:08;99016.22;;;30.11;37.13
37792;BME280;29527;55.766;37.570;2023-08-08T06:51:34;98990.53;;;30.36;36.10
37792;BME280;29527;55.766;37.570;2023-08-08T06:54:00;99011.81;;;30.46;36.41
37792;BME280;29527;55.766;37.570;2023-08-08T06:56:26;99023.13;;;30.49;36.52
37792;BME280;29527;55.766;37.570;2023-08-08T06:58:53;99019.78;;;31.04;35.63
37792;BME280;29527;55.766;37.570;2023-08-08T07:01:19;99028.50;;;31.63;34.51
37792;BME280;29527;55.766;37.570;2023-08-08T07:03:45;99036.06;;;31.98;33.94
37792;BME280;29527;55.766;37.570;2023-08-08T07:06:12;99036.44;;;32.26;33.14
37792;BME280;29527;55.766;37.570;2023-08-08T07:08:38;99044.47;;;32.67;32.60
37792;BME280;29527;55.766;37.570;2023-08-08T07:11:06;99039.06;;;33.40;31.38
37792;BME280;29527;55.766;37.570;2023-08-08T07:13:32;99019.63;;;33.64;30.69
37792;BME280;29527;55.766;37.570;2023-08-08T07:15:58;99043.84;;;34.21;30.14
37792;BME280;29527;55.766;37.570;2023-08-08T07:18:23;99046.22;;;34.67;29.35
37792;BME280;29527;55.766;37.570;2023-08-08T07:20:49;99040.78;;;34.23;30.20
37792;BME280;29527;55.766;37.570;2023-08-08T07:23:15;99041.31;;;34.06;30.33
37792;BME280;29527;55.766;37.570;2023-08-08T07:25:42;99054.56;;;33.46;31.11
37792;BME280;29527;55.766;37.570;2023-08-08T07:28:07;99036.28;;;32.52;32.48
37792;BME280;29527;55.766;37.570;2023-08-08T07:30:34;99042.44;;;32.78;32.69
37792;BME280;29527;55.766;37.570;2023-08-08T07:33:00;99039.06;;;33.40;31.38
37792;BME280;29527;55.766;37.570;2023-08-08T07:35:26;99041.34;;;33.09;31.68
37792;BME280;29527;55.766;37.570;2023-08-08T07:37:51;99041.28;;;32.49;32.31
37792;BME280;29527;55.766;37.570;2023-08-08T07:40:18;99037.50;;;31.90;33.23
37792;BME280;29527;55.766;37.570;2023-08-08T07:42:49;99051.22;;;31.50;34.52
37792;BME280;29527;55.766;37.570;2023-08-08T07:45:15;99056.72;;;31.60;34.31
37792;BME280;29527;55.766;37.570;2023-08-08T07:47:41;99051.09;;;31.81;33.99
37792;BME280;29527;55.766;37.570;2023-08-08T07:50:07;99061.53;;;32.00;33.77
37792;BME280;29527;55.766;37.570;2023-08-08T07:52:36;99052.34;;;32.10;34.06
37792;BME280;29527;55.766;37.570;2023-08-08T07:55:02;99056.63;;;31.81;34.27
37792;BME280;29527;55.766;37.570;2023-08-08T07:57:29;99053.78;;;31.31;35.10
37792;BME280;29527;55.766;37.570;2023-08-08T07:59:56;99057.38;;;31.05;35.33
37792;BME280;29527;55.766;37.570;2023-08-08T08:02:21;99051.31;;;31.03;35.70
37792;BME280;29527;55.766;37.570;2023-08-08T08:04:47;99050.75;;;30.86;35.97
37792;BME280;29527;55.766;37.570;2023-08-08T08:07:12;99049.69;;;30.61;36.45
37792;BME280;29527;55.766;37.570;2023-08-08T08:09:38;99059.03;;;30.39;36.57
37792;BME280;29527;55.766;37.570;2023-08-08T08:12:04;99047.41;;;30.27;36.97
37792;BME280;29527;55.766;37.570;2023-08-08T08:14:30;99033.06;;;30.30;36.85
37792;BME280;29527;55.766;37.570;2023-08-08T08:16:56;99045.78;;;30.51;37.13
37792;BME280;29527;55.766;37.570;2023-08-08T08:19:21;99066.81;;;30.68;36.93
37792;BME280;29527;55.766;37.570;2023-08-08T08:21:47;99045.81;;;30.62;36.57
37792;BME280;29527;55.766;37.570;2023-08-08T08:24:12;99044.09;;;30.30;36.74
37792;BME280;29527;55.766;37.570;2023-08-08T08:26:38;99071.00;;;29.86;37.58
37792;BME280;29527;55.766;37.570;2023-08-08T08:29:03;99063.59;;;29.33;38.25
37792;BME280;29527;55.766;37.570;2023-08-08T08:31:29;99075.94;;;28.83;39.99
37792;BME280;29527;55.766;37.570;2023-08-08T08:33:54;99078.91;;;28.48;40.75
37792;BME280;29527;55.766;37.570;2023-08-08T08:36:20;99081.66;;;28.21;40.99
37792;BME280;29527;55.766;37.570;2023-08-08T08:38:47;99074.63;;;28.08;41.87
37792;BME280;29527;55.766;37.570;2023-08-08T08:41:16;99064.69;;;28.07;41.65
37792;BME280;29527;55.766;37.570;2023-08-08T08:43:43;99075.72;;;28.07;41.68
37792;BME280;29527;55.766;37.570;2023-08-08T08:46:11;99078.28;;;28.41;41.30
37792;BME280;29527;55.766;37.570;2023-08-08T08:48:36;99071.00;;;28.90;40.26
37792;BME280;29527;55.766;37.570;2023-08-08T08:51:02;99072.06;;;29.21;39.16
37792;BME280;29527;55.766;37.570;2023-08-08T08:53:29;99094.19;;;29.32;38.80
37792;BME280;29527;55.766;37.570;2023-08-08T08:55:56;99091.66;;;29.25;39.24
37792;BME280;29527;55.766;37.570;2023-08-08T08:58:24;99084.50;;;29.29;39.41
37792;BME280;29527;55.766;37.570;2023-08-08T09:00:51;99089.25;;;29.34;39.73
37792;BME280;29527;55.766;37.570;2023-08-08T09:03:17;99080.84;;;29.61;39.12
37792;BME280;29527;55.766;37.570;2023-08-08T09:05:45;99056.09;;;29.72;38.25
37792;BME280;29527;55.766;37.570;2023-08-08T09:08:11;99076.28;;;29.98;37.94
37792;BME280;29527;55.766;37.570;2023-08-08T09:10:38;99082.50;;;30.36;37.86
37792;BME280;29527;55.766;37.570;2023-08-08T09:13:04;99088.06;;;30.73;37.24
37792;BME280;29527;55.766;37.570;2023-08-08T09:15:33;99089.47;;;31.22;35.98
37792;BME280;29527;55.766;37.570;2023-08-08T09:18:00;99076.72;;;31.31;35.44
37792;BME280;29527;55.766;37.570;2023-08-08T09:20:26;99059.28;;;31.15;35.28
37792;BME280;29527;55.766;37.570;2023-08-08T09:22:53;99085.53;;;31.44;35.55
37792;BME280;29527;55.766;37.570;2023-08-08T09:25:19;99075.50;;;31.69;34.64
37792;BME280;29527;55.766;37.570;2023-08-08T09:27:45;99082.59;;;31.96;34.72
37792;BME280;29527;55.766;37.570;2023-08-08T09:30:11;99076.91;;;32.21;33.90
37792;BME280;29527;55.766;37.570;2023-08-08T09:32:37;99080.22;;;32.24;34.15
37792;BME280;29527;55.766;37.570;2023-08-08T09:35:03;99095.09;;;32.43;33.92
37792;BME280;29527;55.766;37.570;2023-08-08T09:37:29;99102.88;;;32.31;33.85
37792;BME280;29527;55.766;37.570;2023-08-08T09:39:59;99096.47;;;31.90;34.52
37792;BME280;29527;55.766;37.570;2023-08-08T09:42:28;99100.69;;;31.62;34.77
37792;BME280;29527;55.766;37.570;2023-08-08T09:44:56;99091.56;;;31.67;34.94
37792;BME280;29527;55.766;37.570;2023-08-08T09:47:22;99095.94;;;31.73;35.44
37792;BME280;29527;55.766;37.570;2023-08-08T09:49:48;99092.97;;;31.59;35.37
37792;BME280;29527;55.766;37.570;2023-08-08T09:52:15;99088.31;;;31.33;35.81
37792;BME280;29527;55.766;37.570;2023-08-08T09:54:41;99093.59;;;30.93;36.61
37792;BME280;29527;55.766;37.570;2023-08-08T09:57:07;99096.66;;;30.71;36.69
37792;BME280;29527;55.766;37.570;2023-08-08T09:59:34;99104.41;;;30.64;37.09
37792;BME280;29527;55.766;37.570;2023-08-08T10:02:01;99099.63;;;30.49;37.79
37792;BME280;29527;55.766;37.570;2023-08-08T10:04:27;99100.22;;;30.56;37.35
37792;BME280;29527;55.766;37.570;2023-08-08T10:06:52;99085.56;;;30.40;37.05
37792;BME280;29527;55.766;37.570;2023-08-08T10:09:18;99098.03;;;30.63;37.12
37792;BME280;29527;55.766;37.570;2023-08-08T10:11:44;99086.16;;;30.73;36.92
37792;BME280;29527;55.766;37.570;2023-08-08T10:14:11;99099.16;;;30.83;36.79
37792;BME280;29527;55.766;37.570;2023-08-08T10:16:37;99102.19;;;30.92;36.11
37792;BME280;29527;55.766;37.570;2023-08-08T10:19:04;99094.97;;;31.01;36.17
37792;BME280;29527;55.766;37.570;2023-08-08T10:21:34;99106.31;;;31.20;36.01
37792;BME280;29527;55.766;37.570;2023-08-08T10:24:09;99103.78;;;31.34;35.27
37792;BME280;29527;55.766;37.570;2023-08-08T10:26:51;99100.97;;;31.55;35.52
37792;BME280;29527;55.766;37.570;2023-08-08T10:29:18;99104.28;;;31.57;35.23
37792;BME280;29527;55.766;37.570;2023-08-08T10:31:52;99102.31;;;31.68;35.92
37792;BME280;29527;55.766;37.570;2023-08-08T10:34:20;99111.78;;;31.57;36.13
37792;BME280;29527;55.766;37.570;2023-08-08T10:36:51;99107.38;;;31.40;35.97
37792;BME280;29527;55.766;37.570;2023-08-08T10:39:20;99110.47;;;30.97;36.55
37792;BME280;29527;55.766;37.570;2023-08-08T10:41:50;99111.00;;;30.84;36.74
37792;BME280;29527;55.766;37.570;2023-08-08T10:44:25;99113.78;;;30.99;36.76
37792;BME280;29527;55.766;37.570;2023-08-08T10:46:52;99117.09;;;30.91;37.00
37792;BME280;29527;55.766;37.570;2023-08-08T10:49:18;99126.72;;;30.57;37.85
37792;BME280;29527;55.766;37.570;2023-08-08T10:51:46;99114.78;;;30.31;38.31
37792;BME280;29527;55.766;37.570;2023-08-08T10:56:50;99134.72;;;30.43;38.21
37792;BME280;29527;55.766;37.570;2023-08-08T10:59:19;99127.72;;;30.20;38.89
37792;BME280;29527;55.766;37.570;2023-08-08T11:01:46;99138.38;;;29.90;39.24
37792;BME280;29527;55.766;37.570;2023-08-08T11:04:13;99141.03;;;29.70;39.95
37792;BME280;29527;55.766;37.570;2023-08-08T11:06:39;99128.25;;;29.53;40.17
37792;BME280;29527;55.766;37.570;2023-08-08T11:09:06;99122.34;;;29.39;40.54
37792;BME280;29527;55.766;37.570;2023-08-08T11:11:42;99141.78;;;29.55;40.41
37792;BME280;29527;55.766;37.570;2023-08-08T11:14:13;99136.13;;;29.39;40.14
37792;BME280;29527;55.766;37.570;2023-08-08T11:16:39;99134.34;;;29.22;40.72
37792;BME280;29527;55.766;37.570;2023-08-08T11:19:05;99132.59;;;29.06;41.00
37792;BME280;29527;55.766;37.570;2023-08-08T11:21:34;99147.72;;;29.03;41.14
37792;BME280;29527;55.766;37.570;2023-08-08T11:24:00;99132.97;;;28.82;41.52
37792;BME280;29527;55.766;37.570;2023-08-08T11:26:27;99146.59;;;28.72;42.23
37792;BME280;29527;55.766;37.570;2023-08-08T11:28:52;99143.47;;;28.63;41.93
37792;BME280;29527;55.766;37.570;2023-08-08T11:31:21;99138.91;;;28.74;41.79
37792;BME280;29527;55.766;37.570;2023-08-08T11:33:48;99112.28;;;28.57;42.33
37792;BME280;29527;55.766;37.570;2023-08-08T11:36:14;99105.03;;;28.46;42.39
37792;BME280;29527;55.766;37.570;2023-08-08T11:38:40;99111.06;;;28.43;42.40
37792;BME280;29527;55.766;37.570;2023-08-08T11:41:12;99139.75;;;28.47;42.47
37792;BME280;29527;55.766;37.570;2023-08-08T11:43:39;99155.34;;;28.63;42.00
37792;BME280;29527;55.766;37.570;2023-08-08T11:46:09;99151.97;;;28.84;41.54
37792;BME280;29527;55.766;37.570;2023-08-08T11:48:35;99151.72;;;28.85;41.78
37792;BME280;29527;55.766;37.570;2023-08-08T11:51:04;99162.78;;;28.90;41.56
37792;BME280;29527;55.766;37.570;2023-08-08T11:53:29;99158.59;;;28.88;41.65
37792;BME280;29527;55.766;37.570;2023-08-08T11:55:55;99152.00;;;28.89;41.64
37792;BME280;29527;55.766;37.570;2023-08-08T11:58:24;99155.31;;;28.91;41.36
37792;BME280;29527;55.766;37.570;2023-08-08T12:00:50;99152.16;;;29.04;41.61
37792;BME280;29527;55.766;37.570;2023-08-08T12:03:18;99149.63;;;29.03;41.42
37792;BME280;29527;55.766;37.570;2023-08-08T12:05:47;99153.31;;;29.14;41.56
37792;BME280;29527;55.766;37.570;2023-08-08T12:08:17;99118.19;;;28.99;41.51
37792;BME280;29527;55.766;37.570;2023-08-08T12:10:50;99149.75;;;29.13;41.36
37792;BME280;29527;55.766;37.570;2023-08-08T12:13:22;99140.53;;;28.97;41.54
37792;BME280;29527;55.766;37.570;2023-08-08T12:15:49;99141.31;;;28.92;42.00
37792;BME280;29527;55.766;37.570;2023-08-08T12:18:18;99143.34;;;29.07;41.70
37792;BME280;29527;55.766;37.570;2023-08-08T12:20:43;99136.56;;;29.20;41.47
37792;BME280;29527;55.766;37.570;2023-08-08T12:23:09;99135.41;;;29.49;40.94
37792;BME280;29527;55.766;37.570;2023-08-08T12:25:34;99139.97;;;29.76;40.17
37792;BME280;29527;55.766;37.570;2023-08-08T12:28:02;99143.41;;;30.04;39.76
37792;BME280;29527;55.766;37.570;2023-08-08T12:30:27;99145.16;;;30.26;39.78
37792;BME280;29527;55.766;37.570;2023-08-08T12:32:53;99141.59;;;30.41;39.45
37792;BME280;29527;55.766;37.570;2023-08-08T12:35:19;99145.50;;;30.55;38.81
37792;BME280;29527;55.766;37.570;2023-08-08T12:37:46;99143.63;;;30.66;38.63
37792;BME280;29527;55.766;37.570;2023-08-08T12:40:12;99143.34;;;30.73;38.33
37792;BME280;29527;55.766;37.570;2023-08-08T12:42:38;99145.00;;;30.94;38.38
37792;BME280;29527;55.766;37.570;2023-08-08T12:45:05;99139.22;;;31.12;37.61
37792;BME280;29527;55.766;37.570;2023-08-08T12:47:31;99143.06;;;31.31;37.42
37792;BME280;29527;55.766;37.570;2023-08-08T12:49:57;99142.50;;;31.50;37.05
37792;BME280;29527;55.766;37.570;2023-08-08T12:52:22;99142.22;;;31.52;36.65